Time;durP1;ratioP1;P1;durP2;ratioP2;P2;SDS_P1;SDS_P2;PMS_P1;PMS_P2;Temp;Humidity;BMP_temperature;BMP_pressure;BME280_temperature;BME280_humidity;BME280_pressure;Samples;Min_cycle;Max_cycle;Signal;HPM_P1;HPM_P2
2022/04/01 00:01:27;;;;;;;6.15;2.90;;;;;;;;;;5013912;28;20037;-87
2022/04/01 00:03:53;;;;;;;6.93;2.70;;;;;;;;;;5025266;28;20040;-88
2022/04/01 00:06:19;;;;;;;6.43;2.63;;;;;;;;;;5032292;28;20519;-89
2022/04/01 00:08:45;;;;;;;7.15;3.28;;;;;;;;;;5032186;28;20045;-87
2022/04/01 00:11:12;;;;;;;7.93;2.97;;;;;;;;;;5031861;28;20040;-88
2022/04/01 00:13:38;;;;;;;5.13;2.28;;;;;;;;;;5015457;28;20048;-88
2022/04/01 00:16:05;;;;;;;5.80;2.20;;;;;;;;;;5015545;28;20048;-87
2022/04/01 00:18:31;;;;;;;5.10;2.10;;;;;;;;;;5032535;28;20073;-88
2022/04/01 00:20:57;;;;;;;4.63;2.10;;;;;;;;;;5031312;28;20044;-87
2022/04/01 00:23:23;;;;;;;7.18;2.40;;;;;;;;;;5032115;28;20037;-86
2022/04/01 00:25:50;;;;;;;6.43;2.40;;;;;;;;;;5032789;28;20041;-87
2022/04/01 00:28:16;;;;;;;5.97;2.15;;;;;;;;;;5015955;28;20378;-89
2022/04/01 00:30:42;;;;;;;6.53;2.40;;;;;;;;;;5031240;28;20044;-89
2022/04/01 00:33:08;;;;;;;7.30;2.15;;;;;;;;;;5016574;28;20128;-89
2022/04/01 00:35:35;;;;;;;6.15;2.33;;;;;;;;;;5032014;28;20045;-88
2022/04/01 00:38:02;;;;;;;6.63;2.30;;;;;;;;;;5014869;28;20037;-88
2022/04/01 00:40:28;;;;;;;4.75;2.17;;;;;;;;;;5031375;28;20041;-86
2022/04/01 00:42:54;;;;;;;6.53;2.38;;;;;;;;;;5016049;28;20037;-90
2022/04/01 00:45:21;;;;;;;8.52;2.60;;;;;;;;;;5035048;28;20140;-89
2022/04/01 00:47:47;;;;;;;7.70;2.65;;;;;;;;;;5017197;28;20122;-85
2022/04/01 00:50:13;;;;;;;6.82;2.72;;;;;;;;;;5016202;28;20045;-88
2022/04/01 00:52:42;;;;;;;6.80;2.50;;;;;;;;;;5025834;28;20037;-85
2022/04/01 00:55:08;;;;;;;6.07;2.25;;;;;;;;;;5036126;28;20513;-89
2022/04/01 00:57:36;;;;;;;6.28;2.33;;;;;;;;;;5017151;28;20405;-88
2022/04/01 01:00:03;;;;;;;7.07;2.25;;;;;;;;;;5015368;28;20049;-88
2022/04/01 01:02:34;;;;;;;8.27;2.70;;;;;;;;;;5026234;28;20397;-87
2022/04/01 01:05:02;;;;;;;5.70;2.58;;;;;;;;;;5034862;28;20077;-85
2022/04/01 01:07:30;;;;;;;5.35;2.30;;;;;;;;;;5035012;28;20044;-87
2022/04/01 01:09:56;;;;;;;7.22;2.80;;;;;;;;;;5015426;28;20051;-87
2022/04/01 01:12:24;;;;;;;4.80;1.90;;;;;;;;;;5025002;28;20310;-87
2022/04/01 01:14:50;;;;;;;4.53;2.00;;;;;;;;;;5029956;28;20100;-87
2022/04/01 01:17:16;;;;;;;6.32;2.28;;;;;;;;;;5000433;28;20045;-87
2022/04/01 01:19:46;;;;;;;5.25;2.03;;;;;;;;;;5034939;28;20456;-85
2022/04/01 01:22:14;;;;;;;6.53;2.35;;;;;;;;;;5034930;28;20401;-89
2022/04/01 01:24:41;;;;;;;7.47;2.50;;;;;;;;;;5018148;28;20036;-87
2022/04/01 01:27:08;;;;;;;7.80;2.20;;;;;;;;;;5034357;28;20041;-88
2022/04/01 01:29:39;;;;;;;4.88;1.88;;;;;;;;;;5018243;28;20129;-88
2022/04/01 01:32:07;;;;;;;4.28;1.92;;;;;;;;;;5018439;28;20087;-89
2022/04/01 01:34:33;;;;;;;4.70;2.38;;;;;;;;;;5015410;28;20521;-88
2022/04/01 01:37:00;;;;;;;6.22;2.53;;;;;;;;;;5016750;28;20052;-89
2022/04/01 01:39:26;;;;;;;5.68;2.08;;;;;;;;;;5018759;28;20118;-87
2022/04/01 01:41:53;;;;;;;4.65;2.00;;;;;;;;;;5018411;28;20041;-88
2022/04/01 01:44:19;;;;;;;5.53;2.17;;;;;;;;;;5033940;28;20060;-87
2022/04/01 01:46:46;;;;;;;4.65;2.42;;;;;;;;;;5034284;28;20045;-86
2022/04/01 01:49:12;;;;;;;7.15;2.28;;;;;;;;;;5034608;28;20114;-87
2022/04/01 01:54:43;;;;;;;6.45;2.53;;;;;;;;;;5049879;28;20045;-88
2022/04/01 01:57:10;;;;;;;6.25;1.92;;;;;;;;;;5018216;28;20133;-86
2022/04/01 01:59:36;;;;;;;6.70;2.28;;;;;;;;;;5034101;28;20044;-86
2022/04/01 02:02:08;;;;;;;4.57;1.88;;;;;;;;;;5035183;28;20041;-87
2022/04/01 02:04:34;;;;;;;5.40;2.50;;;;;;;;;;5013711;28;20069;-86
2022/04/01 02:07:00;;;;;;;5.70;2.88;;;;;;;;;;5004238;28;20045;-87
2022/04/01 02:09:27;;;;;;;6.45;2.10;;;;;;;;;;5034011;28;20052;-89
2022/04/01 02:11:53;;;;;;;4.95;1.90;;;;;;;;;;5049962;28;20045;-87
2022/04/01 02:14:19;;;;;;;3.80;1.90;;;;;;;;;;5033709;28;20377;-88
2022/04/01 02:16:45;;;;;;;5.47;2.20;;;;;;;;;;5034202;28;20048;-86
2022/04/01 02:19:12;;;;;;;6.07;2.25;;;;;;;;;;5034129;28;20118;-87
2022/04/01 02:21:39;;;;;;;5.07;2.17;;;;;;;;;;5017700;28;20404;-88
2022/04/01 02:24:10;;;;;;;5.72;2.40;;;;;;;;;;5033278;28;20044;-87
2022/04/01 02:26:37;;;;;;;6.80;2.17;;;;;;;;;;5033737;28;20037;-88
2022/04/01 02:29:05;;;;;;;5.72;2.13;;;;;;;;;;5018003;28;20040;-87
2022/04/01 02:31:32;;;;;;;5.80;2.20;;;;;;;;;;5018428;28;20051;-87
2022/04/01 02:33:59;;;;;;;6.82;2.65;;;;;;;;;;5017273;28;20041;-86
2022/04/01 02:36:25;;;;;;;7.80;2.45;;;;;;;;;;5014127;28;20041;-87
2022/04/01 02:38:53;;;;;;;4.55;2.08;;;;;;;;;;5023589;28;20045;-89
2022/04/01 02:41:20;;;;;;;5.80;2.15;;;;;;;;;;5013931;28;20034;-86
2022/04/01 02:43:46;;;;;;;5.93;2.53;;;;;;;;;;5031243;28;20041;-88
2022/04/01 02:46:12;;;;;;;7.47;2.60;;;;;;;;;;5032878;28;20057;-88
2022/04/01 02:48:38;;;;;;;7.15;2.53;;;;;;;;;;5017262;28;20072;-88
2022/04/01 02:51:05;;;;;;;5.50;2.00;;;;;;;;;;5033415;28;20088;-87
2022/04/01 02:53:31;;;;;;;5.50;2.25;;;;;;;;;;5017250;28;20048;-87
2022/04/01 02:55:57;;;;;;;4.43;2.13;;;;;;;;;;5016575;28;20048;-88
2022/04/01 02:58:23;;;;;;;6.00;2.20;;;;;;;;;;5033048;28;20033;-87
2022/04/01 03:00:50;;;;;;;5.90;2.13;;;;;;;;;;5013202;28;20493;-88
2022/04/01 03:03:34;;;;;;;4.93;2.08;;;;;;;;;;5014004;28;20048;-87
2022/04/01 03:06:01;;;;;;;4.00;1.95;;;;;;;;;;5032543;28;20059;-88
2022/04/01 03:08:27;;;;;;;4.43;2.03;;;;;;;;;;5033305;28;20049;-87
2022/04/01 03:10:54;;;;;;;5.55;2.28;;;;;;;;;;5033563;28;20040;-88
2022/04/01 03:13:21;;;;;;;5.45;1.73;;;;;;;;;;5016269;28;20073;-88
2022/04/01 03:15:47;;;;;;;4.50;1.83;;;;;;;;;;5033815;28;20087;-88
2022/04/01 03:18:14;;;;;;;5.32;1.90;;;;;;;;;;5032985;28;20064;-88
2022/04/01 03:20:40;;;;;;;6.32;2.28;;;;;;;;;;5033055;28;20045;-88
2022/04/01 03:23:06;;;;;;;6.45;2.10;;;;;;;;;;5017598;28;20041;-88
2022/04/01 03:25:32;;;;;;;4.80;2.15;;;;;;;;;;5017551;28;20048;-88
2022/04/01 03:28:00;;;;;;;5.15;2.58;;;;;;;;;;5017336;28;20049;-87
2022/04/01 03:30:27;;;;;;;5.72;2.15;;;;;;;;;;5016430;28;20036;-87
2022/04/01 03:32:54;;;;;;;3.47;1.80;;;;;;;;;;5016296;28;20399;-87
2022/04/01 03:35:21;;;;;;;5.57;1.85;;;;;;;;;;5034031;28;20497;-87
2022/04/01 03:37:49;;;;;;;7.00;2.20;;;;;;;;;;5049064;28;20095;-87
2022/04/01 03:40:16;;;;;;;5.97;1.90;;;;;;;;;;5032296;28;20044;-88
2022/04/01 03:42:44;;;;;;;5.00;1.83;;;;;;;;;;5016339;28;20040;-88
2022/04/01 03:45:11;;;;;;;4.65;1.88;;;;;;;;;;5015961;28;20132;-87
2022/04/01 03:47:41;;;;;;;5.70;2.25;;;;;;;;;;5033663;28;20041;-87
2022/04/01 03:50:13;;;;;;;6.80;2.28;;;;;;;;;;5032973;28;20052;-87
2022/04/01 03:52:39;;;;;;;5.07;1.67;;;;;;;;;;5032099;28;20102;-87
2022/04/01 03:55:07;;;;;;;5.72;1.88;;;;;;;;;;5032826;28;20055;-87
2022/04/01 03:57:35;;;;;;;4.80;1.73;;;;;;;;;;5032652;28;20041;-87
2022/04/01 04:00:02;;;;;;;5.90;2.03;;;;;;;;;;5016934;28;20086;-87
2022/04/01 04:02:28;;;;;;;3.80;1.60;;;;;;;;;;5015616;28;20089;-86
2022/04/01 04:04:55;;;;;;;4.53;2.30;;;;;;;;;;5032805;28;20045;-88
2022/04/01 04:07:34;;;;;;;4.93;2.08;;;;;;;;;;5011999;28;20060;-86
2022/04/01 04:10:00;;;;;;;5.88;1.92;;;;;;;;;;5028692;28;20036;-87
2022/04/01 04:12:27;;;;;;;6.25;1.75;;;;;;;;;;5032195;28;20065;-86
2022/04/01 04:14:54;;;;;;;3.88;1.70;;;;;;;;;;5015026;28;20524;-86
2022/04/01 04:17:30;;;;;;;5.03;1.90;;;;;;;;;;5014706;28;20095;-87
2022/04/01 04:20:13;;;;;;;5.72;1.60;;;;;;;;;;5029107;28;20061;-86
2022/04/01 04:22:46;;;;;;;5.63;1.63;;;;;;;;;;5031727;28;20045;-87
2022/04/01 04:25:14;;;;;;;4.78;1.90;;;;;;;;;;5012515;28;20049;-88
2022/04/01 04:28:01;;;;;;;4.97;2.05;;;;;;;;;;5028075;28;20049;-87
2022/04/01 04:30:34;;;;;;;5.20;1.80;;;;;;;;;;5015948;28;20064;-88
2022/04/01 04:33:16;;;;;;;4.33;1.97;;;;;;;;;;5015562;28;20041;-88
2022/04/01 04:35:43;;;;;;;6.75;2.10;;;;;;;;;;5031358;28;20099;-85
2022/04/01 04:38:10;;;;;;;5.05;1.52;;;;;;;;;;5015279;28;20123;-86
2022/04/01 04:40:36;;;;;;;5.22;1.60;;;;;;;;;;5014855;28;20041;-87
2022/04/01 04:43:03;;;;;;;5.47;2.00;;;;;;;;;;5031883;28;20063;-86
2022/04/01 04:45:30;;;;;;;5.18;1.50;;;;;;;;;;5030991;28;20056;-87
2022/04/01 04:47:58;;;;;;;7.30;2.10;;;;;;;;;;5015692;28;20041;-88
2022/04/01 04:50:24;;;;;;;4.88;1.80;;;;;;;;;;5032044;28;20427;-87
2022/04/01 04:52:53;;;;;;;4.75;1.63;;;;;;;;;;5015079;28;20515;-88
2022/04/01 04:55:20;;;;;;;3.90;1.67;;;;;;;;;;5015872;28;20045;-87
2022/04/01 04:57:50;;;;;;;3.63;1.73;;;;;;;;;;5014613;28;20127;-89
2022/04/01 05:00:19;;;;;;;5.18;1.83;;;;;;;;;;5014432;28;20071;-88
2022/04/01 05:02:55;;;;;;;7.50;1.50;;;;;;;;;;5032304;28;20040;-87
2022/04/01 05:05:27;;;;;;;5.05;1.65;;;;;;;;;;5031971;28;20123;-90
2022/04/01 05:08:12;;;;;;;4.40;1.70;;;;;;;;;;5032573;28;20090;-89
2022/04/01 05:10:38;;;;;;;;;;;;;;;;;;5017381;28;20056;-88
2022/04/01 05:13:25;;;;;;;4.18;1.50;;;;;;;;;;5032543;28;19955;-89
2022/04/01 05:15:58;;;;;;;6.32;2.05;;;;;;;;;;5022489;28;20106;-88
2022/04/01 05:18:40;;;;;;;5.90;1.70;;;;;;;;;;5031969;28;20115;-84
2022/04/01 05:21:12;;;;;;;7.03;1.88;;;;;;;;;;5031942;28;20040;-86
2022/04/01 05:23:58;;;;;;;4.20;1.85;;;;;;;;;;5016766;28;20041;-88
2022/04/01 05:26:38;;;;;;;11.57;1.90;;;;;;;;;;5015124;28;20084;-88
2022/04/01 05:29:07;;;;;;;6.22;1.50;;;;;;;;;;5034436;28;20518;-89
2022/04/01 05:31:46;;;;;;;4.30;1.73;;;;;;;;;;5015752;28;20045;-88
2022/04/01 05:34:29;;;;;;;5.38;1.83;;;;;;;;;;5034953;28;20076;-89
2022/04/01 05:36:57;;;;;;;3.40;1.75;;;;;;;;;;5018461;28;20045;-87
2022/04/01 05:39:25;;;;;;;5.90;1.77;;;;;;;;;;5039284;28;20055;-90
2022/04/01 05:41:51;;;;;;;6.60;1.67;;;;;;;;;;5036130;28;20041;-91
2022/04/01 05:44:20;;;;;;;3.25;1.30;;;;;;;;;;5040607;28;20045;-89
2022/04/01 05:46:46;;;;;;;6.22;1.50;;;;;;;;;;5020752;28;20561;-88
2022/04/01 05:49:14;;;;;;;4.28;1.90;;;;;;;;;;5022973;28;20488;-89
2022/04/01 05:51:41;;;;;;;4.63;1.70;;;;;;;;;;5024092;28;20041;-91
2022/04/01 05:54:08;;;;;;;5.43;1.70;;;;;;;;;;5022040;28;20052;-87
2022/04/01 05:56:37;;;;;;;5.43;1.95;;;;;;;;;;5038978;28;20504;-88
2022/04/01 05:59:04;;;;;;;5.10;1.70;;;;;;;;;;5021755;28;20396;-89
2022/04/01 06:01:49;;;;;;;7.53;1.92;;;;;;;;;;5020748;28;20029;-89
2022/04/01 06:04:28;;;;;;;4.55;1.60;;;;;;;;;;5039374;28;20045;-88
2022/04/01 06:07:20;;;;;;;5.22;2.50;;;;;;;;;;5039645;28;20131;-91
2022/04/01 06:09:46;;;;;;;5.43;1.60;;;;;;;;;;5022393;28;20025;-89
2022/04/01 06:15:39;;;;;;;6.38;2.05;;;;;;;;;;5063112;28;20079;-90
2022/04/01 06:18:46;;;;;;;4.50;1.70;;;;;;;;;;5021071;28;20045;-86
2022/04/01 06:21:37;;;;;;;5.10;1.75;;;;;;;;;;4987770;28;20030;-90
2022/04/01 06:24:21;;;;;;;5.45;1.70;;;;;;;;;;4991979;28;20062;-87
2022/04/01 06:27:33;;;;;;;5.95;2.25;;;;;;;;;;4958506;28;20054;-89
2022/04/01 06:30:09;;;;;;;5.22;1.70;;;;;;;;;;5019376;28;20052;-87
2022/04/01 06:32:35;;;;;;;5.38;1.80;;;;;;;;;;5025683;28;20254;-87
2022/04/01 06:35:11;;;;;;;5.13;1.67;;;;;;;;;;5009291;28;20548;-88
2022/04/01 06:37:42;;;;;;;5.80;1.85;;;;;;;;;;5017791;28;20041;-84
2022/04/01 06:40:15;;;;;;;5.75;2.20;;;;;;;;;;5016304;28;20040;-88
2022/04/01 06:42:43;;;;;;;6.53;1.80;;;;;;;;;;5016248;28;20041;-88
2022/04/01 06:45:10;;;;;;;4.10;1.90;;;;;;;;;;5033089;28;20053;-86
2022/04/01 06:47:41;;;;;;;6.28;2.30;;;;;;;;;;5015975;28;20037;-85
2022/04/01 06:50:12;;;;;;;14.13;2.00;;;;;;;;;;5031932;28;20033;-87
2022/04/01 06:52:46;;;;;;;4.20;1.58;;;;;;;;;;5016409;28;20048;-85
2022/04/01 06:55:12;;;;;;;4.07;1.55;;;;;;;;;;5016042;28;20136;-87
2022/04/01 06:57:40;;;;;;;6.45;1.80;;;;;;;;;;5015442;28;20493;-88
2022/04/01 07:00:14;;;;;;;6.63;1.70;;;;;;;;;;5032611;28;20036;-85
2022/04/01 07:03:03;;;;;;;4.00;1.35;;;;;;;;;;5015600;28;20317;-86
2022/04/01 07:05:29;;;;;;;8.00;1.90;;;;;;;;;;5015407;28;20045;-87
2022/04/01 07:14:38;;;;;;;4.90;2.00;;;;;;;;;;5032453;28;20045;-87
2022/04/01 07:17:04;;;;;;;6.22;1.70;;;;;;;;;;5015776;28;20051;-87
2022/04/01 07:19:31;;;;;;;4.72;1.83;;;;;;;;;;5017762;28;20037;-89
2022/04/01 07:22:01;;;;;;;4.72;1.67;;;;;;;;;;5050578;28;20037;-87
2022/04/01 07:24:32;;;;;;;3.88;1.58;;;;;;;;;;5032901;28;20072;-90
2022/04/01 07:27:08;;;;;;;3.80;1.60;;;;;;;;;;5034114;28;20044;-88
2022/04/01 07:29:34;;;;;;;5.18;1.73;;;;;;;;;;5032057;28;20080;-86
2022/04/01 07:34:50;;;;;;;6.32;1.98;;;;;;;;;;5048394;28;20375;-86
2022/04/01 07:37:22;;;;;;;5.88;1.67;;;;;;;;;;5030939;28;20045;-86
2022/04/01 07:39:48;;;;;;;4.10;1.85;;;;;;;;;;5016199;28;20037;-86
2022/04/01 07:42:16;;;;;;;6.55;1.80;;;;;;;;;;5017649;28;20043;-84
2022/04/01 07:44:42;;;;;;;6.18;1.90;;;;;;;;;;5016067;28;20045;-84
2022/04/01 07:47:09;;;;;;;4.60;2.03;;;;;;;;;;5031542;28;20044;-87
2022/04/01 07:49:40;;;;;;;4.55;1.90;;;;;;;;;;5015008;28;20519;-86
2022/04/01 07:52:10;;;;;;;6.40;2.17;;;;;;;;;;5015878;28;20128;-86
2022/04/01 07:54:38;;;;;;;4.97;2.13;;;;;;;;;;5014573;28;20037;-87
2022/04/01 07:57:05;;;;;;;3.55;1.80;;;;;;;;;;5011142;28;20042;-87
2022/04/01 07:59:31;;;;;;;5.78;1.95;;;;;;;;;;5005715;28;20033;-85
2022/04/01 08:01:58;;;;;;;5.32;1.98;;;;;;;;;;5024695;28;20393;-84
2022/04/01 08:04:25;;;;;;;4.90;1.65;;;;;;;;;;5030877;28;20044;-85
2022/04/01 08:06:52;;;;;;;4.70;1.80;;;;;;;;;;5038175;28;20409;-87
2022/04/01 08:09:18;;;;;;;5.07;1.95;;;;;;;;;;5010663;28;20049;-87
2022/04/01 08:11:46;;;;;;;7.50;2.10;;;;;;;;;;5008819;28;20074;-87
2022/04/01 08:14:12;;;;;;;6.03;2.33;;;;;;;;;;5031140;28;20504;-86
2022/04/01 08:17:04;;;;;;;6.88;2.28;;;;;;;;;;5030618;28;20458;-85
2022/04/01 08:19:30;;;;;;;5.90;2.55;;;;;;;;;;5014158;28;20033;-89
2022/04/01 08:21:58;;;;;;;6.05;2.55;;;;;;;;;;5031666;28;20047;-87
2022/04/01 08:24:24;;;;;;;5.80;2.10;;;;;;;;;;5014789;28;20044;-87
2022/04/01 08:26:52;;;;;;;7.13;2.67;;;;;;;;;;5014180;28;20059;-85
2022/04/01 08:29:18;;;;;;;5.18;2.30;;;;;;;;;;5031276;28;20036;-88
2022/04/01 08:31:44;;;;;;;5.30;2.80;;;;;;;;;;5014904;28;20408;-87
2022/04/01 08:34:11;;;;;;;6.22;3.25;;;;;;;;;;5014159;28;20037;-89
2022/04/01 08:36:37;;;;;;;5.82;3.30;;;;;;;;;;5013316;28;20056;-86
2022/04/01 08:39:04;;;;;;;8.35;4.03;;;;;;;;;;5014222;28;20577;-87
2022/04/01 08:41:30;;;;;;;6.90;3.75;;;;;;;;;;5016232;28;20034;-88
2022/04/01 08:43:56;;;;;;;10.70;5.82;;;;;;;;;;5010535;28;20034;-85
2022/04/01 08:46:25;;;;;;;10.48;5.65;;;;;;;;;;5033471;28;20095;-85
2022/04/01 08:49:02;;;;;;;11.48;6.18;;;;;;;;;;5014495;28;20056;-85
2022/04/01 08:51:39;;;;;;;10.02;6.03;;;;;;;;;;5031520;28;20489;-88
2022/04/01 08:54:16;;;;;;;9.77;5.85;;;;;;;;;;5015460;28;20107;-85
2022/04/01 08:56:43;;;;;;;11.07;6.88;;;;;;;;;;5014444;28;20052;-88
2022/04/01 08:59:09;;;;;;;12.35;7.60;;;;;;;;;;5047228;28;20041;-87
2022/04/01 09:01:45;;;;;;;11.52;7.35;;;;;;;;;;5056854;28;20048;-88
2022/04/01 09:04:16;;;;;;;11.73;7.65;;;;;;;;;;5032479;28;20055;-85
2022/04/01 09:06:42;;;;;;;9.98;6.82;;;;;;;;;;5044244;28;20044;-86
2022/04/01 09:09:45;;;;;;;10.63;7.03;;;;;;;;;;5040805;28;20718;-86
2022/04/01 09:12:25;;;;;;;11.75;7.53;;;;;;;;;;5041798;28;20071;-85
2022/04/01 09:14:52;;;;;;;9.77;6.13;;;;;;;;;;5042598;28;20119;-84
2022/04/01 09:17:18;;;;;;;9.90;6.53;;;;;;;;;;5063311;28;20105;-84
2022/04/01 09:19:44;;;;;;;10.02;5.88;;;;;;;;;;5050521;28;20044;-85
2022/04/01 09:22:16;;;;;;;9.60;5.97;;;;;;;;;;5031145;28;20560;-83
2022/04/01 09:25:03;;;;;;;11.00;5.07;;;;;;;;;;5046546;28;20068;-84
2022/04/01 09:27:39;;;;;;;8.55;5.03;;;;;;;;;;5037103;28;20053;-85
2022/04/01 09:30:06;;;;;;;9.32;5.00;;;;;;;;;;5030525;28;20091;-85
2022/04/01 09:32:39;;;;;;;8.35;4.70;;;;;;;;;;5062936;28;20056;-86
2022/04/01 09:35:07;;;;;;;9.10;4.95;;;;;;;;;;5050028;28;20087;-83
2022/04/01 09:37:37;;;;;;;8.82;5.38;;;;;;;;;;5033806;28;20041;-86
2022/04/01 09:40:07;;;;;;;8.43;5.32;;;;;;;;;;5033964;28;20298;-85
2022/04/01 09:42:34;;;;;;;10.13;6.15;;;;;;;;;;5033549;28;20040;-85
2022/04/01 09:45:01;;;;;;;9.93;4.88;;;;;;;;;;5050057;28;20056;-85
2022/04/01 09:47:34;;;;;;;9.77;5.95;;;;;;;;;;5067190;28;20128;-85
2022/04/01 09:50:00;;;;;;;9.18;5.68;;;;;;;;;;5067291;28;20060;-85
2022/04/01 09:52:26;;;;;;;10.35;5.78;;;;;;;;;;5031318;28;20069;-82
2022/04/01 09:54:54;;;;;;;10.07;5.28;;;;;;;;;;5049758;28;20064;-84
2022/04/01 09:57:23;;;;;;;9.73;5.43;;;;;;;;;;5067323;28;20067;-87
2022/04/01 09:59:53;;;;;;;9.73;5.45;;;;;;;;;;5034306;28;20082;-86
2022/04/01 10:02:19;;;;;;;8.77;6.00;;;;;;;;;;5050062;28;20047;-87
2022/04/01 10:04:46;;;;;;;10.15;6.28;;;;;;;;;;5034394;28;20044;-87
2022/04/01 10:07:22;;;;;;;9.77;5.85;;;;;;;;;;5050880;28;20048;-84
2022/04/01 10:09:49;;;;;;;9.65;5.63;;;;;;;;;;5033758;28;20127;-85
2022/04/01 10:12:18;;;;;;;9.07;5.10;;;;;;;;;;5033965;28;20041;-84
2022/04/01 10:14:45;;;;;;;7.90;5.00;;;;;;;;;;5049129;28;20053;-85
2022/04/01 10:17:15;;;;;;;8.98;4.60;;;;;;;;;;5049958;28;20124;-86
2022/04/01 10:19:42;;;;;;;8.85;4.20;;;;;;;;;;5033147;28;20037;-84
2022/04/01 10:22:11;;;;;;;8.77;3.67;;;;;;;;;;5033519;28;20508;-85
2022/04/01 10:24:58;;;;;;;9.00;4.00;;;;;;;;;;5049943;28;20040;-86
2022/04/01 10:27:27;;;;;;;7.03;3.72;;;;;;;;;;5033259;28;20493;-85
2022/04/01 10:29:58;;;;;;;8.25;3.78;;;;;;;;;;5032964;28;20045;-87
2022/04/01 10:32:26;;;;;;;8.00;4.40;;;;;;;;;;5049670;28;20056;-84
2022/04/01 10:34:54;;;;;;;9.48;4.43;;;;;;;;;;5033085;28;20052;-87
2022/04/01 10:37:22;;;;;;;8.85;4.80;;;;;;;;;;5033416;28;20477;-88
2022/04/01 10:40:08;;;;;;;8.55;4.10;;;;;;;;;;5032226;28;20033;-87
2022/04/01 10:42:37;;;;;;;8.85;4.20;;;;;;;;;;5033728;28;20047;-87
2022/04/01 10:45:08;;;;;;;6.97;3.90;;;;;;;;;;5032715;28;20135;-88
2022/04/01 10:53:54;;;;;;;6.32;3.15;;;;;;;;;;5050326;28;20045;-85
2022/04/01 10:56:23;;;;;;;8.73;3.60;;;;;;;;;;5033612;28;20495;-89
2022/04/01 10:59:14;;;;;;;6.53;3.28;;;;;;;;;;5032833;28;20475;-83
2022/04/01 11:01:50;;;;;;;6.68;2.83;;;;;;;;;;5034603;28;20565;-85
2022/04/01 11:04:16;;;;;;;5.90;3.20;;;;;;;;;;5049578;28;20531;-87
2022/04/01 11:07:00;;;;;;;6.53;3.17;;;;;;;;;;5033142;28;20127;-87
2022/04/01 11:09:39;;;;;;;8.13;3.20;;;;;;;;;;5029812;28;20147;-87
2022/04/01 11:12:21;;;;;;;5.55;2.80;;;;;;;;;;5039310;28;20406;-87
2022/04/01 11:15:14;;;;;;;7.15;3.20;;;;;;;;;;5032746;28;20037;-87
2022/04/01 11:17:47;;;;;;;5.85;2.88;;;;;;;;;;5032001;28;20045;-86
2022/04/01 11:20:19;;;;;;;5.47;2.50;;;;;;;;;;5066524;28;20045;-86
2022/04/01 11:22:47;;;;;;;4.32;2.08;;;;;;;;;;5032285;28;20041;-87
2022/04/01 11:25:35;;;;;;;5.43;2.15;;;;;;;;;;5049066;28;20033;-86
2022/04/01 11:28:11;;;;;;;6.28;2.20;;;;;;;;;;5064697;28;20056;-85
2022/04/01 11:30:49;;;;;;;7.13;2.40;;;;;;;;;;5032539;28;20040;-87
2022/04/01 11:33:23;;;;;;;5.57;2.50;;;;;;;;;;5052432;28;20137;-85
2022/04/01 11:35:54;;;;;;;7.50;2.92;;;;;;;;;;5049181;28;20343;-87
2022/04/01 11:38:21;;;;;;;6.43;2.60;;;;;;;;;;5032112;28;20045;-86
2022/04/01 11:40:49;;;;;;;5.15;2.83;;;;;;;;;;5049104;28;20041;-85
2022/04/01 11:43:19;;;;;;;5.43;2.40;;;;;;;;;;5065353;28;20128;-88
2022/04/01 11:45:45;;;;;;;7.18;2.80;;;;;;;;;;5032529;28;20469;-86
2022/04/01 11:48:39;;;;;;;5.07;2.35;;;;;;;;;;5032241;28;20099;-89
2022/04/01 11:51:08;;;;;;;5.85;2.25;;;;;;;;;;5035715;28;20049;-87
2022/04/01 11:53:49;;;;;;;5.72;2.50;;;;;;;;;;5031663;28;20045;-87
2022/04/01 11:56:17;;;;;;;6.80;2.38;;;;;;;;;;5028618;28;20033;-87
2022/04/01 11:58:51;;;;;;;5.45;2.55;;;;;;;;;;5034486;28;20393;-89
2022/04/01 12:01:19;;;;;;;6.15;2.70;;;;;;;;;;5046662;28;20041;-86
2022/04/01 12:03:51;;;;;;;5.47;2.60;;;;;;;;;;5047294;28;20052;-89
2022/04/01 12:09:06;;;;;;;4.30;2.30;;;;;;;;;;5033450;28;20643;-85
2022/04/01 12:11:40;;;;;;;6.97;2.50;;;;;;;;;;5050374;28;20072;-87
2022/04/01 12:14:06;;;;;;;5.75;2.70;;;;;;;;;;5058798;28;20048;-88
2022/04/01 12:16:38;;;;;;;8.88;2.95;;;;;;;;;;5028241;28;20441;-85
2022/04/01 12:19:04;;;;;;;7.80;2.97;;;;;;;;;;5040571;28;20480;-87
2022/04/01 12:21:37;;;;;;;6.20;2.53;;;;;;;;;;5050898;28;20397;-89
2022/04/01 12:24:04;;;;;;;7.03;3.03;;;;;;;;;;5033666;28;20041;-88
2022/04/01 12:26:30;;;;;;;7.07;2.88;;;;;;;;;;5029418;28;20041;-89
2022/04/01 12:28:57;;;;;;;4.25;2.40;;;;;;;;;;5009306;28;20037;-89
2022/04/01 12:31:28;;;;;;;5.68;2.70;;;;;;;;;;5038386;28;20076;-87
2022/04/01 12:33:56;;;;;;;5.78;2.42;;;;;;;;;;5038531;28;20412;-89
2022/04/01 12:36:36;;;;;;;8.48;2.65;;;;;;;;;;5014956;28;20057;-87
2022/04/01 12:39:20;;;;;;;6.45;2.70;;;;;;;;;;5053580;28;20659;-88
2022/04/01 12:42:00;;;;;;;6.13;2.80;;;;;;;;;;5038000;28;20040;-89
2022/04/01 12:44:46;;;;;;;5.60;2.47;;;;;;;;;;5049941;28;20504;-84
2022/04/01 12:47:26;;;;;;;4.85;2.22;;;;;;;;;;5044667;28;20407;-87
2022/04/01 12:49:52;;;;;;;3.50;1.80;;;;;;;;;;5039062;28;20174;-84
2022/04/01 12:52:19;;;;;;;6.10;2.20;;;;;;;;;;5055241;28;20056;-86
2022/04/01 12:54:49;;;;;;;5.45;1.80;;;;;;;;;;5055711;28;20044;-87
2022/04/01 12:57:17;;;;;;;5.53;2.50;;;;;;;;;;5039229;28;20052;-88
2022/04/01 12:59:47;;;;;;;6.32;2.30;;;;;;;;;;5038720;28;20048;-89
2022/04/01 13:02:13;;;;;;;5.95;2.15;;;;;;;;;;5038464;28;20041;-86
2022/04/01 13:04:42;;;;;;;4.22;2.08;;;;;;;;;;5035115;28;20043;-86
2022/04/01 13:07:19;;;;;;;6.93;2.30;;;;;;;;;;5036350;28;20032;-84
2022/04/01 13:09:46;;;;;;;6.30;2.60;;;;;;;;;;5055034;28;20048;-87
2022/04/01 13:12:12;;;;;;;7.95;2.60;;;;;;;;;;5038573;28;20044;-85
2022/04/01 13:14:39;;;;;;;4.50;2.10;;;;;;;;;;5054868;28;20431;-88
2022/04/01 13:17:25;;;;;;;5.43;2.00;;;;;;;;;;5055118;28;20079;-87
2022/04/01 13:20:12;;;;;;;5.88;2.50;;;;;;;;;;5058021;28;20320;-86
2022/04/01 13:22:39;;;;;;;7.13;2.60;;;;;;;;;;5038326;28;20040;-88
2022/04/01 13:25:06;;;;;;;6.55;2.47;;;;;;;;;;5039162;28;20036;-83
2022/04/01 13:27:35;;;;;;;6.32;2.20;;;;;;;;;;5039721;28;20547;-86
2022/04/01 13:30:07;;;;;;;5.53;2.25;;;;;;;;;;5054396;28;20106;-87
2022/04/01 13:32:34;;;;;;;5.93;2.10;;;;;;;;;;5034333;28;20041;-88
2022/04/01 13:35:01;;;;;;;5.45;2.35;;;;;;;;;;5057842;28;20038;-90
2022/04/01 13:37:29;;;;;;;6.53;2.15;;;;;;;;;;5040528;28;20040;-88
2022/04/01 13:39:58;;;;;;;5.03;2.20;;;;;;;;;;5040346;28;20067;-88
2022/04/01 13:42:25;;;;;;;6.20;2.20;;;;;;;;;;5036113;28;20190;-84
2022/04/01 13:44:52;;;;;;;4.88;2.60;;;;;;;;;;5018603;28;20095;-88
2022/04/01 13:47:18;;;;;;;6.57;2.50;;;;;;;;;;5044694;28;20041;-89
2022/04/01 13:49:46;;;;;;;6.10;2.10;;;;;;;;;;5038507;28;20087;-87
2022/04/01 13:52:22;;;;;;;6.28;2.08;;;;;;;;;;5039336;28;20036;-84
2022/04/01 13:54:49;;;;;;;5.53;2.15;;;;;;;;;;5037876;28;20094;-85
2022/04/01 13:57:30;;;;;;;6.07;1.85;;;;;;;;;;5054113;28;20412;-86
2022/04/01 13:59:56;;;;;;;4.28;1.95;;;;;;;;;;5055916;28;20040;-86
2022/04/01 14:02:44;;;;;;;13.10;3.08;;;;;;;;;;5056191;28;20411;-85
2022/04/01 14:05:14;;;;;;;4.63;2.10;;;;;;;;;;5074644;28;20029;-87
2022/04/01 14:07:41;;;;;;;5.95;2.10;;;;;;;;;;5036171;28;20044;-88
2022/04/01 14:10:07;;;;;;;4.93;2.10;;;;;;;;;;5026159;28;20040;-86
2022/04/01 14:12:36;;;;;;;5.32;2.03;;;;;;;;;;5056317;28;20499;-85
2022/04/01 14:15:03;;;;;;;5.55;2.58;;;;;;;;;;5061715;28;20040;-88
2022/04/01 14:17:33;;;;;;;6.68;1.98;;;;;;;;;;5056586;28;20102;-86
2022/04/01 14:20:17;;;;;;;8.13;2.35;;;;;;;;;;5049874;28;20032;-88
2022/04/01 14:22:43;;;;;;;5.57;2.00;;;;;;;;;;5040311;28;20090;-86
2022/04/01 14:25:10;;;;;;;5.38;1.98;;;;;;;;;;5039849;28;20388;-84
2022/04/01 14:27:40;;;;;;;7.47;2.47;;;;;;;;;;5043297;28;20491;-86
2022/04/01 14:30:19;;;;;;;5.70;2.10;;;;;;;;;;5056177;28;20089;-89
2022/04/01 14:32:49;;;;;;;6.32;2.17;;;;;;;;;;5038824;28;20050;-86
2022/04/01 14:35:15;;;;;;;6.25;2.30;;;;;;;;;;5054349;28;20047;-85
2022/04/01 14:37:42;;;;;;;4.43;2.13;;;;;;;;;;5061681;28;20044;-86
2022/04/01 14:40:10;;;;;;;4.03;2.00;;;;;;;;;;5037481;28;20041;-86
2022/04/01 14:42:37;;;;;;;7.22;2.45;;;;;;;;;;5035995;28;20071;-86
2022/04/01 14:45:03;;;;;;;4.30;2.00;;;;;;;;;;5043151;28;20419;-86
2022/04/01 14:47:30;;;;;;;6.00;2.03;;;;;;;;;;5043385;28;20130;-83
2022/04/01 14:49:57;;;;;;;5.63;2.15;;;;;;;;;;5042042;28;20041;-85
2022/04/01 14:52:23;;;;;;;5.15;2.17;;;;;;;;;;5059139;28;20489;-86
2022/04/01 14:54:50;;;;;;;5.63;1.70;;;;;;;;;;5062584;28;20154;-88
2022/04/01 14:57:18;;;;;;;4.85;1.75;;;;;;;;;;5057347;28;20040;-87
2022/04/01 14:59:46;;;;;;;6.68;2.38;;;;;;;;;;5061945;28;20048;-87
2022/04/01 15:02:13;;;;;;;6.55;2.20;;;;;;;;;;5039601;28;20063;-89
2022/04/01 15:04:40;;;;;;;5.47;2.17;;;;;;;;;;5072631;28;20388;-84
2022/04/01 15:07:11;;;;;;;5.00;1.67;;;;;;;;;;5060839;28;20036;-87
2022/04/01 15:09:41;;;;;;;5.07;2.05;;;;;;;;;;5056529;28;20043;-87
2022/04/01 15:12:07;;;;;;;4.65;2.38;;;;;;;;;;5040440;28;20484;-84
2022/04/01 15:14:38;;;;;;;4.97;1.88;;;;;;;;;;5040563;28;20091;-88
2022/04/01 15:17:04;;;;;;;4.30;1.73;;;;;;;;;;5043557;28;20044;-85
2022/04/01 15:19:31;;;;;;;4.85;2.05;;;;;;;;;;5044682;28;20068;-85
2022/04/01 15:21:58;;;;;;;4.97;2.28;;;;;;;;;;5036616;28;20400;-85
2022/04/01 15:24:28;;;;;;;16.17;8.02;;;;;;;;;;5035676;28;20036;-86
2022/04/01 15:26:55;;;;;;;42.80;24.38;;;;;;;;;;5051380;28;20530;-83